Time;durP1;ratioP1;P1;durP2;ratioP2;P2;SDS_P1;SDS_P2;PMS_P1;PMS_P2;Temp;Humidity;BMP_temperature;BMP_pressure;BME280_temperature;BME280_humidity;BME280_pressure;Samples;Min_cycle;Max_cycle;Signal;HPM_P1;HPM_P2
2024/04/09 00:00:32;;;;;;;13.77;3.50;;;18.90;99.90;;;;;;4475964;26;21035;-78
2024/04/09 00:02:38;;;;;;;9.33;2.87;;;18.80;99.90;;;;;;4485601;26;20243;-78
2024/04/09 00:04:39;;;;;;;10.47;3.20;;;18.80;99.90;;;;;;4472294;26;20783;-78
2024/04/09 00:06:43;;;;;;;11.90;3.40;;;18.80;99.90;;;;;;4484867;26;20251;-78
2024/04/09 00:08:44;;;;;;;8.90;3.13;;;18.80;99.90;;;;;;4477126;26;20286;-78
2024/04/09 00:10:48;;;;;;;12.20;3.40;;;18.80;99.90;;;;;;4472296;26;20972;-78
2024/04/09 00:12:49;;;;;;;14.40;3.87;;;18.80;99.90;;;;;;4478101;26;20286;-78
2024/04/09 00:14:55;;;;;;;13.93;3.60;;;18.80;99.90;;;;;;4476865;26;20243;-78
2024/04/09 00:16:57;;;;;;;11.10;3.63;;;18.70;99.90;;;;;;4473085;26;20689;-78
2024/04/09 00:19:05;;;;;;;9.33;2.80;;;18.70;99.90;;;;;;4468331;26;20335;-78
2024/04/09 00:21:07;;;;;;;13.07;3.47;;;18.70;99.90;;;;;;4460319;26;20231;-77
2024/04/09 00:23:16;;;;;;;11.80;3.60;;;18.60;99.90;;;;;;4470175;26;20274;-77
2024/04/09 00:25:18;;;;;;;10.53;3.47;;;18.60;99.90;;;;;;4474820;26;20366;-77
2024/04/09 00:27:20;;;;;;;7.77;3.47;;;18.60;99.90;;;;;;4481719;26;20266;-76
2024/04/09 00:29:23;;;;;;;13.10;3.70;;;18.50;99.90;;;;;;4491422;26;20235;-76
2024/04/09 00:31:24;;;;;;;8.23;3.43;;;18.50;99.90;;;;;;4484250;26;20303;-77
2024/04/09 00:33:28;;;;;;;7.47;2.90;;;18.50;99.90;;;;;;4484821;26;20232;-76
2024/04/09 00:35:31;;;;;;;9.97;3.47;;;18.50;99.90;;;;;;4477907;26;20286;-78
2024/04/09 00:37:35;;;;;;;10.63;3.37;;;18.40;99.90;;;;;;4473385;26;20271;-77
2024/04/09 00:39:37;;;;;;;9.83;3.47;;;18.40;99.90;;;;;;4470231;26;20248;-77
2024/04/09 00:41:41;;;;;;;6.73;3.63;;;18.40;99.90;;;;;;4485649;26;20248;-77
2024/04/09 00:43:42;;;;;;;9.60;3.37;;;18.40;99.90;;;;;;4485540;26;20238;-77
2024/04/09 00:45:46;;;;;;;9.13;2.93;;;18.40;99.90;;;;;;4485220;26;20247;-76
2024/04/09 00:47:48;;;;;;;10.67;3.27;;;18.40;99.90;;;;;;4481667;26;20243;-77
2024/04/09 00:49:53;;;;;;;9.13;3.33;;;18.30;99.90;;;;;;4481354;26;20240;-78
2024/04/09 00:51:57;;;;;;;9.10;3.03;;;18.30;99.90;;;;;;4484930;26;20299;-78
2024/04/09 00:54:03;;;;;;;13.60;3.77;;;18.30;99.90;;;;;;4484722;26;20613;-76
2024/04/09 00:56:05;;;;;;;13.97;4.20;;;18.30;99.90;;;;;;4480685;26;20286;-77
2024/04/09 00:58:12;;;;;;;10.27;3.40;;;18.20;99.90;;;;;;4478667;26;20760;-76
2024/04/09 01:00:14;;;;;;;10.47;3.90;;;18.20;99.90;;;;;;4474614;26;20287;-76
2024/04/09 01:02:19;;;;;;;8.80;3.13;;;18.20;99.90;;;;;;4487465;26;20248;-77
2024/04/09 01:04:20;;;;;;;8.33;3.20;;;18.10;99.90;;;;;;4479979;26;20786;-77
2024/04/09 01:06:23;;;;;;;7.47;3.07;;;18.10;99.90;;;;;;4475176;26;20243;-76
2024/04/09 01:08:30;;;;;;;7.10;3.03;;;18.10;99.90;;;;;;4466366;26;20865;-78
2024/04/09 01:10:35;;;;;;;9.60;3.60;;;18.00;99.90;;;;;;4483939;26;20239;-79
2024/04/09 01:12:36;;;;;;;7.37;3.23;;;18.00;99.90;;;;;;4476355;26;20287;-79
2024/04/09 01:14:40;;;;;;;9.37;3.13;;;18.00;99.90;;;;;;4462618;26;20283;-78
2024/04/09 01:16:44;;;;;;;7.10;3.10;;;18.00;99.90;;;;;;4467945;26;20248;-77
2024/04/09 01:18:48;;;;;;;7.00;3.33;;;18.00;99.90;;;;;;4485589;26;20278;-77
2024/04/09 01:20:49;;;;;;;7.57;2.90;;;17.90;99.90;;;;;;4480424;26;20286;-79
2024/04/09 01:22:55;;;;;;;15.07;3.90;;;17.90;99.90;;;;;;4472354;26;20726;-78
2024/04/09 01:24:56;;;;;;;9.00;3.00;;;17.90;99.90;;;;;;4481235;26;20281;-77
2024/04/09 01:27:00;;;;;;;8.33;3.30;;;17.90;99.90;;;;;;4482413;26;20759;-78
2024/04/09 01:29:01;;;;;;;7.40;3.27;;;17.80;99.90;;;;;;4484489;26;20311;-78
2024/04/09 01:31:04;;;;;;;7.93;3.13;;;17.80;99.90;;;;;;4473482;26;20340;-79
2024/04/09 01:33:05;;;;;;;8.13;3.30;;;17.80;99.90;;;;;;4486553;26;20327;-78
2024/04/09 01:35:09;;;;;;;7.47;3.40;;;17.80;99.90;;;;;;4484372;26;20317;-78
2024/04/09 01:37:12;;;;;;;7.20;3.33;;;17.70;99.90;;;;;;4467808;26;20239;-78
2024/04/09 01:39:20;;;;;;;6.67;3.10;;;17.70;99.90;;;;;;4490618;26;20251;-77
2024/04/09 01:41:21;;;;;;;7.57;3.30;;;17.70;99.90;;;;;;4477439;26;20282;-79
2024/04/09 01:43:25;;;;;;;7.73;3.23;;;17.70;99.90;;;;;;4468684;26;20247;-77
2024/04/09 01:45:26;;;;;;;6.70;3.10;;;17.60;99.90;;;;;;4472051;26;20243;-77
2024/04/09 01:47:30;;;;;;;6.90;3.23;;;17.60;99.90;;;;;;4483647;26;20675;-77
2024/04/09 01:49:31;;;;;;;7.80;3.53;;;17.60;99.90;;;;;;4472237;26;20755;-77
2024/04/09 01:51:34;;;;;;;7.40;3.60;;;17.60;99.90;;;;;;4485739;26;20247;-78
2024/04/09 01:53:35;;;;;;;7.27;3.77;;;17.60;99.90;;;;;;4482548;26;20251;-78
2024/04/09 01:55:41;;;;;;;10.30;3.50;;;17.50;99.90;;;;;;4476908;26;20239;-78
2024/04/09 01:57:44;;;;;;;7.13;3.20;;;17.50;99.90;;;;;;4489194;26;20242;-77
2024/04/09 01:59:47;;;;;;;7.67;4.10;;;17.50;99.90;;;;;;4467719;26;20728;-77
2024/04/09 02:01:48;;;;;;;8.73;4.10;;;17.50;99.90;;;;;;4453135;26;20793;-78
2024/04/09 02:03:56;;;;;;;8.23;4.20;;;17.40;99.90;;;;;;4461920;26;20334;-77
2024/04/09 02:05:57;;;;;;;8.80;3.97;;;17.40;99.90;;;;;;4476015;26;20242;-78
2024/04/09 02:08:00;;;;;;;8.53;4.00;;;17.40;99.90;;;;;;4475469;26;20750;-79
2024/04/09 02:10:01;;;;;;;6.07;3.40;;;17.40;99.90;;;;;;4466891;26;20730;-78
2024/04/09 02:12:08;;;;;;;7.57;3.53;;;17.40;99.90;;;;;;4469407;26;20298;-78
2024/04/09 02:14:10;;;;;;;7.17;3.50;;;17.30;99.90;;;;;;4477018;26;20259;-77
2024/04/09 02:16:16;;;;;;;11.67;4.40;;;17.30;99.90;;;;;;4462832;26;20240;-77
2024/04/09 02:18:17;;;;;;;8.20;4.00;;;17.30;99.90;;;;;;4485617;26;20243;-79
2024/04/09 02:20:20;;;;;;;8.70;4.00;;;17.30;99.90;;;;;;4472252;26;20239;-77
2024/04/09 02:22:21;;;;;;;9.57;3.60;;;17.20;99.90;;;;;;4468092;26;20251;-77
2024/04/09 02:24:26;;;;;;;7.40;4.00;;;17.20;99.90;;;;;;4474201;26;20247;-78
2024/04/09 02:26:28;;;;;;;6.57;3.10;;;17.20;99.90;;;;;;4477420;26;20291;-77
2024/04/09 02:28:35;;;;;;;6.00;3.47;;;17.20;99.90;;;;;;4472856;26;20330;-77
2024/04/09 02:30:36;;;;;;;9.07;3.33;;;17.20;99.90;;;;;;4469968;26;20277;-77
2024/04/09 02:32:39;;;;;;;7.40;3.43;;;17.20;99.90;;;;;;4469019;26;20307;-77
2024/04/09 02:34:40;;;;;;;9.10;4.07;;;17.20;99.90;;;;;;4473269;26;20255;-77
2024/04/09 02:36:44;;;;;;;7.77;3.57;;;17.10;99.90;;;;;;4465424;26;20651;-77
2024/04/09 02:38:45;;;;;;;7.33;3.80;;;17.10;99.90;;;;;;4475583;26;20231;-78
2024/04/09 02:40:49;;;;;;;6.13;3.97;;;17.10;99.90;;;;;;4472613;26;20279;-77
2024/04/09 02:42:50;;;;;;;8.10;3.90;;;17.10;99.90;;;;;;4481704;26;20240;-77
2024/04/09 02:44:53;;;;;;;9.00;3.60;;;17.10;99.90;;;;;;4465507;26;20320;-79
2024/04/09 02:46:57;;;;;;;8.63;3.90;;;17.10;99.90;;;;;;4477539;26;20361;-77
2024/04/09 02:48:58;;;;;;;8.40;4.00;;;17.00;99.90;;;;;;4475346;26;20255;-77
2024/04/09 02:51:03;;;;;;;5.33;3.50;;;17.00;99.90;;;;;;4479967;26;20284;-78
2024/04/09 02:53:04;;;;;;;6.33;3.43;;;17.00;99.90;;;;;;4478264;26;20656;-78
2024/04/09 02:55:08;;;;;;;5.93;3.47;;;17.00;99.90;;;;;;4457294;26;20244;-78
2024/04/09 02:57:10;;;;;;;8.53;4.00;;;17.00;99.90;;;;;;4461523;26;20246;-78
2024/04/09 02:59:13;;;;;;;7.00;3.70;;;17.00;99.90;;;;;;4469256;26;20302;-78
2024/04/09 03:01:17;;;;;;;7.37;3.30;;;17.00;99.90;;;;;;4477933;26;20247;-78
2024/04/09 03:03:20;;;;;;;7.87;3.47;;;17.00;99.90;;;;;;4484706;26;20285;-78
2024/04/09 03:05:27;;;;;;;7.27;3.83;;;17.00;99.90;;;;;;4472754;26;20250;-78
2024/04/09 03:07:31;;;;;;;8.97;3.80;;;17.00;99.90;;;;;;4470823;26;20281;-79
2024/04/09 03:09:32;;;;;;;7.00;3.43;;;17.00;99.90;;;;;;4475361;26;20239;-78
2024/04/09 03:11:35;;;;;;;6.73;3.40;;;17.00;99.90;;;;;;4477415;26;20294;-78
2024/04/09 03:13:38;;;;;;;5.70;3.60;;;17.00;99.90;;;;;;4479016;26;20247;-78
2024/04/09 03:15:41;;;;;;;6.60;3.53;;;17.00;99.90;;;;;;4482339;26;20598;-78
2024/04/09 03:17:45;;;;;;;7.73;3.70;;;17.00;99.90;;;;;;4476171;26;20824;-78
2024/04/09 03:19:48;;;;;;;5.07;3.37;;;17.00;99.90;;;;;;4472499;26;20239;-78
2024/04/09 03:21:52;;;;;;;7.40;3.37;;;17.00;99.90;;;;;;4481489;26;20247;-78
2024/04/09 03:23:53;;;;;;;11.07;4.47;;;17.00;99.90;;;;;;4474077;26;20374;-78
2024/04/09 03:25:53;;;;;;;7.50;3.83;;;17.00;99.90;;;;;;4462485;26;20256;-78
2024/04/09 03:27:57;;;;;;;9.33;3.70;;;17.00;99.90;;;;;;4469190;26;20394;-78
2024/04/09 03:29:59;;;;;;;6.90;3.63;;;17.00;99.90;;;;;;4471996;26;20635;-78
2024/04/09 03:32:02;;;;;;;6.67;3.90;;;17.00;99.90;;;;;;4468481;26;20240;-78
2024/04/09 03:34:06;;;;;;;8.10;4.00;;;17.00;99.90;;;;;;4473470;26;20241;-78
2024/04/09 03:36:11;;;;;;;6.20;3.37;;;17.00;99.90;;;;;;4464066;26;20259;-78
2024/04/09 03:38:14;;;;;;;6.97;4.10;;;17.00;99.90;;;;;;4469316;26;20251;-78
2024/04/09 03:40:15;;;;;;;10.33;4.20;;;17.00;99.90;;;;;;4479003;26;20334;-78
2024/04/09 03:42:19;;;;;;;7.83;3.77;;;17.10;99.90;;;;;;4462009;26;20248;-78
2024/04/09 03:44:19;;;;;;;7.73;4.13;;;17.10;99.90;;;;;;4466519;26;20291;-78
2024/04/09 03:46:23;;;;;;;8.30;4.10;;;17.10;99.90;;;;;;4474745;26;20408;-78
2024/04/09 03:48:24;;;;;;;7.53;4.00;;;17.10;99.90;;;;;;4480568;26;20283;-78
2024/04/09 03:50:30;;;;;;;6.10;3.80;;;17.10;99.90;;;;;;4482410;26;20353;-78
2024/04/09 03:52:31;;;;;;;6.33;4.07;;;17.10;99.90;;;;;;4456568;26;20381;-78
2024/04/09 03:54:35;;;;;;;8.07;3.40;;;17.10;99.90;;;;;;4481510;26;20345;-78
2024/04/09 03:56:36;;;;;;;7.87;3.50;;;17.10;99.90;;;;;;4472567;26;20742;-78
2024/04/09 03:58:41;;;;;;;10.63;4.03;;;17.20;99.90;;;;;;4480981;26;20270;-78
2024/04/09 04:00:42;;;;;;;8.37;3.70;;;17.10;99.90;;;;;;4484161;26;20240;-78
2024/04/09 04:02:46;;;;;;;6.87;4.10;;;17.10;99.90;;;;;;4463227;26;20282;-78
2024/04/09 04:04:47;;;;;;;6.93;4.03;;;17.10;99.90;;;;;;4478430;26;20865;-78
2024/04/09 04:06:53;;;;;;;6.80;3.30;;;17.10;99.90;;;;;;4484867;26;20272;-78
2024/04/09 04:08:54;;;;;;;6.50;4.10;;;17.10;99.90;;;;;;4461169;26;20279;-78
2024/04/09 04:10:58;;;;;;;5.53;3.60;;;17.10;99.90;;;;;;4477237;26;20670;-78
2024/04/09 04:12:59;;;;;;;6.70;3.53;;;17.10;99.90;;;;;;4484528;26;20236;-78
2024/04/09 04:15:03;;;;;;;5.77;3.80;;;17.10;99.90;;;;;;4474906;26;20319;-78
2024/04/09 04:17:05;;;;;;;4.73;3.47;;;17.20;99.90;;;;;;4466757;26;20251;-78
2024/04/09 04:19:06;;;;;;;9.73;4.57;;;17.10;99.90;;;;;;4476739;26;20719;-78
2024/04/09 04:21:12;;;;;;;8.53;4.33;;;17.20;99.90;;;;;;4478442;26;20290;-78
2024/04/09 04:23:16;;;;;;;10.80;4.47;;;17.20;99.90;;;;;;4482483;26;20243;-78
2024/04/09 04:25:20;;;;;;;10.00;3.77;;;17.20;99.90;;;;;;4479398;26;20316;-78
2024/04/09 04:27:21;;;;;;;9.37;4.37;;;17.20;99.90;;;;;;4491515;26;20723;-78
2024/04/09 04:29:25;;;;;;;8.30;3.73;;;17.20;99.90;;;;;;4481680;26;20282;-78
2024/04/09 04:31:26;;;;;;;7.83;3.87;;;17.20;99.90;;;;;;4479002;26;20263;-78
2024/04/09 04:33:29;;;;;;;9.67;3.80;;;17.20;99.90;;;;;;4479373;26;20671;-78
2024/04/09 04:35:30;;;;;;;4.93;3.47;;;17.20;99.90;;;;;;4481497;26;20295;-78
2024/04/09 04:37:34;;;;;;;11.47;3.93;;;17.20;99.90;;;;;;4473832;26;20252;-78
2024/04/09 04:39:38;;;;;;;6.67;3.80;;;17.20;99.90;;;;;;4492035;26;20270;-78
2024/04/09 04:41:41;;;;;;;5.87;3.60;;;17.20;99.90;;;;;;4460223;26;20598;-78
2024/04/09 04:43:42;;;;;;;5.27;3.40;;;17.20;99.90;;;;;;4466534;26;20289;-78
2024/04/09 04:45:47;;;;;;;4.07;3.17;;;17.20;99.90;;;;;;4471768;26;21035;-78
2024/04/09 04:47:48;;;;;;;7.70;3.70;;;17.20;99.90;;;;;;4467348;26;20243;-77
2024/04/09 04:49:52;;;;;;;6.40;3.73;;;17.20;99.90;;;;;;4477403;26;20362;-78
2024/04/09 04:51:53;;;;;;;7.03;3.97;;;17.20;99.90;;;;;;4474422;26;20247;-78
2024/04/09 04:53:56;;;;;;;8.33;3.70;;;17.20;99.90;;;;;;4478474;26;20291;-78
2024/04/09 04:56:00;;;;;;;6.07;3.83;;;17.20;99.90;;;;;;4459703;26;20232;-78
2024/04/09 04:58:04;;;;;;;7.83;3.50;;;17.20;99.90;;;;;;4476394;26;20837;-78
2024/04/09 05:00:09;;;;;;;13.00;3.47;;;17.20;99.90;;;;;;4460967;26;20267;-78
2024/04/09 05:02:12;;;;;;;7.07;3.77;;;17.20;99.90;;;;;;4461418;26;20249;-78
2024/04/09 05:04:13;;;;;;;12.07;3.70;;;17.30;99.90;;;;;;4475210;26;20282;-78
2024/04/09 05:06:17;;;;;;;8.13;3.40;;;17.30;99.90;;;;;;4480013;26;20763;-78
2024/04/09 05:08:18;;;;;;;8.03;3.60;;;17.30;99.90;;;;;;4486989;26;20292;-78
2024/04/09 05:10:20;;;;;;;7.70;3.40;;;17.30;99.90;;;;;;4491582;26;20231;-78
2024/04/09 05:12:26;;;;;;;4.63;3.03;;;17.30;99.90;;;;;;4481873;26;20250;-78
2024/04/09 05:14:27;;;;;;;7.67;3.60;;;17.30;99.90;;;;;;4462778;26;20342;-78
2024/04/09 05:16:31;;;;;;;6.53;3.40;;;17.40;99.90;;;;;;4474376;26;20251;-78
2024/04/09 05:18:32;;;;;;;7.30;3.30;;;17.40;99.90;;;;;;4488763;26;20239;-78
2024/04/09 05:20:36;;;;;;;6.27;3.30;;;17.40;99.90;;;;;;4480471;26;20287;-78
2024/04/09 05:22:38;;;;;;;6.77;3.50;;;17.40;99.90;;;;;;4473806;26;20290;-78
2024/04/09 05:24:44;;;;;;;5.97;3.47;;;17.40;99.90;;;;;;4474015;26;20252;-78
2024/04/09 05:26:45;;;;;;;6.23;3.53;;;17.50;99.90;;;;;;4482989;26;20239;-78
2024/04/09 05:28:51;;;;;;;7.80;3.60;;;17.50;99.90;;;;;;4483328;26;20269;-78
2024/04/09 05:30:52;;;;;;;5.60;3.43;;;17.50;99.90;;;;;;4477168;26;20235;-79
2024/04/09 05:32:55;;;;;;;5.63;2.97;;;17.50;99.90;;;;;;4479497;26;20259;-78
2024/04/09 05:34:56;;;;;;;4.80;3.10;;;17.50;99.90;;;;;;4483797;26;20281;-78
2024/04/09 05:37:00;;;;;;;5.93;3.07;;;17.50;99.90;;;;;;4486997;26;20745;-77
2024/04/09 05:39:01;;;;;;;5.50;3.40;;;17.50;99.90;;;;;;4461510;26;21009;-78
2024/04/09 05:41:05;;;;;;;5.37;3.57;;;17.50;99.90;;;;;;4467907;26;20730;-78
2024/04/09 05:43:06;;;;;;;5.10;3.50;;;17.50;99.90;;;;;;4470222;26;20247;-78
2024/04/09 05:45:14;;;;;;;6.03;3.73;;;17.50;99.90;;;;;;4476563;26;20242;-78
2024/04/09 05:47:15;;;;;;;5.30;3.77;;;17.50;99.90;;;;;;4477958;26;20717;-78
2024/04/09 05:49:21;;;;;;;6.60;3.80;;;17.50;99.90;;;;;;4475079;26;20727;-78
2024/04/09 05:51:22;;;;;;;7.70;3.87;;;17.50;99.90;;;;;;4481983;26;20255;-78
2024/04/09 05:53:26;;;;;;;9.53;3.57;;;17.50;99.90;;;;;;4485110;26;20247;-78
2024/04/09 05:55:27;;;;;;;8.17;3.73;;;17.50;99.90;;;;;;4477940;26;20239;-78
2024/04/09 05:57:36;;;;;;;8.53;3.50;;;17.50;99.90;;;;;;4462251;26;20614;-77
2024/04/09 05:59:37;;;;;;;5.43;3.27;;;17.60;99.90;;;;;;4477067;26;20293;-78
2024/04/09 06:01:43;;;;;;;9.50;3.87;;;17.60;99.90;;;;;;4459855;26;20255;-78
2024/04/09 06:03:44;;;;;;;8.03;3.63;;;17.70;99.90;;;;;;4471821;26;20277;-78
2024/04/09 06:05:48;;;;;;;6.33;3.30;;;17.70;99.90;;;;;;4483372;26;20297;-78
2024/04/09 06:07:49;;;;;;;6.90;3.60;;;17.70;99.90;;;;;;4465850;26;21781;-78
2024/04/09 06:09:50;;;;;;;7.97;3.60;;;17.80;99.90;;;;;;4482237;26;20282;-78
2024/04/09 06:11:54;;;;;;;7.90;3.23;;;17.80;99.90;;;;;;4470746;26;20251;-79
2024/04/09 06:13:55;;;;;;;4.83;2.90;;;17.90;99.90;;;;;;4478716;26;20239;-80
2024/04/09 06:15:58;;;;;;;6.53;3.00;;;18.00;99.90;;;;;;4468813;26;20254;-78
2024/04/09 06:18:02;;;;;;;9.03;3.20;;;18.00;99.90;;;;;;4479176;26;20281;-78
2024/04/09 06:20:06;;;;;;;10.13;2.63;;;18.00;99.90;;;;;;4472068;26;20356;-78
2024/04/09 06:22:07;;;;;;;5.40;3.33;;;18.00;99.90;;;;;;4469002;26;20289;-77
2024/04/09 06:24:11;;;;;;;6.17;2.90;;;18.10;99.90;;;;;;4470064;26;20306;-77
2024/04/09 06:26:14;;;;;;;5.50;3.17;;;18.10;99.90;;;;;;4479973;26;20294;-78
2024/04/09 06:28:17;;;;;;;9.27;3.40;;;18.10;99.90;;;;;;4485365;26;20787;-79
2024/04/09 06:30:18;;;;;;;5.30;3.17;;;18.10;99.90;;;;;;4489829;26;20662;-76
2024/04/09 06:32:22;;;;;;;5.57;3.30;;;18.20;99.90;;;;;;4484258;26;20246;-77
2024/04/09 06:34:26;;;;;;;5.03;2.60;;;18.20;99.90;;;;;;4478370;26;20238;-77
2024/04/09 06:36:30;;;;;;;4.73;2.80;;;18.20;99.90;;;;;;4484761;26;20785;-77
2024/04/09 06:38:31;;;;;;;5.93;3.50;;;18.30;99.90;;;;;;4481117;26;20235;-78
2024/04/09 06:40:36;;;;;;;8.83;3.53;;;18.30;99.90;;;;;;4484454;26;20303;-78
2024/04/09 06:42:37;;;;;;;9.90;3.87;;;18.30;99.90;;;;;;4497193;26;20260;-77
2024/04/09 06:44:40;;;;;;;5.70;3.40;;;18.40;99.90;;;;;;4496248;26;20279;-78
2024/04/09 06:46:41;;;;;;;5.57;2.97;;;18.40;99.90;;;;;;4507716;26;20238;-77
2024/04/09 06:48:45;;;;;;;3.70;2.70;;;18.40;99.90;;;;;;4497070;26;20281;-77
2024/04/09 06:50:48;;;;;;;5.70;3.40;;;18.40;99.90;;;;;;4495384;26;20338;-77
2024/04/09 06:52:52;;;;;;;7.33;3.17;;;18.40;99.90;;;;;;4505623;26;20242;-78
2024/04/09 06:54:53;;;;;;;6.27;3.10;;;18.50;99.90;;;;;;4490033;26;20313;-79
2024/04/09 06:56:56;;;;;;;7.17;3.37;;;18.50;99.90;;;;;;4482551;26;20259;-78
2024/04/09 06:58:57;;;;;;;5.80;3.00;;;18.60;99.90;;;;;;4482683;26;20597;-78
2024/04/09 07:01:01;;;;;;;9.07;3.17;;;18.60;99.90;;;;;;4479074;26;20276;-78
2024/04/09 07:03:04;;;;;;;6.77;3.20;;;18.70;99.90;;;;;;4471206;26;20620;-78
2024/04/09 07:05:08;;;;;;;10.23;3.60;;;18.80;99.90;;;;;;4484129;26;20302;-77
2024/04/09 07:07:12;;;;;;;7.40;3.20;;;18.80;99.90;;;;;;4502829;26;20250;-78
2024/04/09 07:09:16;;;;;;;9.80;3.30;;;19.00;99.90;;;;;;4477677;26;20251;-77
2024/04/09 07:11:20;;;;;;;9.17;3.33;;;18.90;99.90;;;;;;4469513;26;20239;-77
2024/04/09 07:13:24;;;;;;;7.83;3.40;;;19.00;99.90;;;;;;4470127;26;20252;-79
2024/04/09 07:15:26;;;;;;;10.83;3.30;;;19.10;99.90;;;;;;4476014;26;20287;-78
2024/04/09 07:17:30;;;;;;;6.80;3.13;;;19.10;99.90;;;;;;4485258;26;20556;-78
2024/04/09 07:19:31;;;;;;;6.63;3.30;;;19.20;99.90;;;;;;4467563;26;20244;-78
2024/04/09 07:21:35;;;;;;;10.40;3.30;;;19.20;99.90;;;;;;4486921;26;20705;-78
2024/04/09 07:23:38;;;;;;;10.13;3.37;;;19.20;99.90;;;;;;4484549;26;20239;-78
2024/04/09 07:25:42;;;;;;;8.70;3.17;;;19.30;99.90;;;;;;4480582;26;20340;-78
2024/04/09 07:27:43;;;;;;;6.47;2.97;;;19.40;99.90;;;;;;4486161;26;20247;-79
2024/04/09 07:29:46;;;;;;;10.97;3.40;;;19.40;99.90;;;;;;4485771;26;20815;-78
2024/04/09 07:31:47;;;;;;;9.70;3.43;;;19.50;99.90;;;;;;4466494;26;20625;-78
2024/04/09 07:33:51;;;;;;;6.90;3.00;;;19.50;99.90;;;;;;4491226;26;20255;-79
2024/04/09 07:35:57;;;;;;;6.37;3.10;;;19.60;99.90;;;;;;4483831;26;20286;-78
2024/04/09 07:38:01;;;;;;;7.27;2.90;;;19.70;99.90;;;;;;4482587;26;21071;-77
2024/04/09 07:40:06;;;;;;;6.23;3.10;;;19.70;99.90;;;;;;4478152;26;20254;-78
2024/04/09 07:42:10;;;;;;;5.50;2.93;;;19.80;99.90;;;;;;4467388;26;20587;-78
2024/04/09 07:44:11;;;;;;;8.73;2.60;;;19.80;99.90;;;;;;4485952;26;20796;-78
2024/04/09 07:46:15;;;;;;;8.67;3.10;;;19.90;99.90;;;;;;4491799;26;20636;-78
2024/04/09 07:48:16;;;;;;;6.30;3.10;;;19.90;99.90;;;;;;4470676;26;20367;-78
2024/04/09 07:50:20;;;;;;;4.87;2.90;;;20.00;99.90;;;;;;4469303;26;20314;-77
2024/04/09 07:52:21;;;;;;;10.20;4.10;;;20.10;99.90;;;;;;4489084;26;20296;-77
2024/04/09 07:54:26;;;;;;;7.23;3.40;;;20.20;99.90;;;;;;4474373;26;20250;-78
2024/04/09 07:56:30;;;;;;;10.83;3.20;;;20.20;99.90;;;;;;4469873;26;20781;-78
2024/04/09 07:58:36;;;;;;;7.63;3.27;;;20.30;99.90;;;;;;4480191;26;20940;-76
2024/04/09 08:00:38;;;;;;;9.60;3.57;;;20.40;99.90;;;;;;4487095;26;20603;-76
2024/04/09 08:02:42;;;;;;;7.03;3.13;;;20.40;99.90;;;;;;4493690;26;20264;-77
2024/04/09 08:04:43;;;;;;;9.23;3.37;;;20.50;99.90;;;;;;4495618;26;20247;-76
2024/04/09 08:06:46;;;;;;;9.53;3.33;;;20.60;99.90;;;;;;4492286;26;20251;-78
2024/04/09 08:08:48;;;;;;;10.80;3.40;;;20.60;99.90;;;;;;4488473;26;20739;-78
2024/04/09 08:10:52;;;;;;;10.23;3.23;;;20.70;99.90;;;;;;4490484;26;20261;-77
2024/04/09 08:12:57;;;;;;;12.20;3.13;;;20.70;99.90;;;;;;4498734;26;20270;-78
2024/04/09 08:15:01;;;;;;;7.03;2.90;;;20.80;99.90;;;;;;4492443;26;20266;-79
2024/04/09 08:17:03;;;;;;;9.70;3.60;;;20.90;99.90;;;;;;4499233;26;20427;-77
2024/04/09 08:19:07;;;;;;;15.27;4.67;;;21.00;99.90;;;;;;4498504;26;20274;-78
2024/04/09 08:21:10;;;;;;;11.33;3.63;;;21.10;99.90;;;;;;4485253;26;20242;-78
2024/04/09 08:23:13;;;;;;;12.40;3.20;;;21.20;99.90;;;;;;4469786;26;20235;-79
2024/04/09 08:25:14;;;;;;;14.40;3.30;;;21.30;99.90;;;;;;4488328;26;20280;-79
2024/04/09 08:27:18;;;;;;;14.07;3.43;;;21.40;99.90;;;;;;4485777;26;20297;-78
2024/04/09 08:29:22;;;;;;;11.43;3.37;;;21.50;99.90;;;;;;4477854;26;20248;-79
2024/04/09 08:31:31;;;;;;;10.97;3.40;;;21.60;99.90;;;;;;4484551;26;20285;-78
2024/04/09 08:33:34;;;;;;;15.87;3.93;;;21.70;99.90;;;;;;4482384;26;20236;-77
2024/04/09 08:35:37;;;;;;;15.07;4.17;;;21.80;99.90;;;;;;4476683;26;20248;-79
2024/04/09 08:37:41;;;;;;;17.13;3.97;;;21.80;99.90;;;;;;4484320;26;20723;-80
2024/04/09 08:39:45;;;;;;;13.23;3.70;;;21.90;99.90;;;;;;4470594;26;20342;-80
2024/04/09 08:41:46;;;;;;;12.77;3.27;;;21.90;99.90;;;;;;4485382;26;20249;-78
2024/04/09 08:43:52;;;;;;;15.30;3.60;;;22.00;99.90;;;;;;4482505;26;20301;-79
2024/04/09 08:45:57;;;;;;;12.30;4.20;;;22.00;99.90;;;;;;4480759;26;20636;-80
2024/04/09 08:48:02;;;;;;;12.10;3.57;;;22.10;99.90;;;;;;4485921;26;20273;-78
2024/04/09 08:50:04;;;;;;;14.77;3.57;;;22.20;99.90;;;;;;4483135;26;20339;-79
2024/04/09 08:52:12;;;;;;;11.57;3.90;;;22.20;99.90;;;;;;4479193;26;20299;-79
2024/04/09 08:54:13;;;;;;;10.60;3.20;;;22.30;99.90;;;;;;4486942;26;20249;-78
2024/04/09 08:56:16;;;;;;;10.23;3.13;;;22.30;99.90;;;;;;4490515;26;20764;-79
2024/04/09 08:58:18;;;;;;;12.53;3.53;;;22.40;99.90;;;;;;4473759;26;20243;-79
2024/04/09 09:00:21;;;;;;;13.53;3.57;;;22.50;99.90;;;;;;4471421;26;20243;-78
2024/04/09 09:02:25;;;;;;;10.97;3.47;;;22.60;99.90;;;;;;4486804;26;20258;-79
2024/04/09 09:04:36;;;;;;;10.53;3.67;;;22.70;99.90;;;;;;4484990;26;20278;-79
2024/04/09 09:06:44;;;;;;;15.57;3.87;;;22.80;99.90;;;;;;4484387;26;20287;-78
2024/04/09 09:08:48;;;;;;;12.90;3.20;;;22.90;99.90;;;;;;4480499;26;20251;-79
2024/04/09 09:10:54;;;;;;;12.07;3.67;;;22.90;99.90;;;;;;4488532;26;20628;-78
2024/04/09 09:12:58;;;;;;;16.30;3.93;;;22.90;99.90;;;;;;4489324;26;20247;-78
2024/04/09 09:15:03;;;;;;;16.93;3.97;;;23.00;99.90;;;;;;4492637;26;20251;-79
2024/04/09 09:17:04;;;;;;;11.10;3.50;;;23.00;99.90;;;;;;4486407;26;20231;-79
2024/04/09 09:19:11;;;;;;;13.93;4.00;;;23.10;99.90;;;;;;4490788;26;20287;-79
2024/04/09 09:21:13;;;;;;;12.60;3.33;;;23.10;99.90;;;;;;4494411;26;20297;-78
2024/04/09 09:23:20;;;;;;;13.77;4.27;;;23.30;99.90;;;;;;4483637;26;20247;-78
2024/04/09 09:25:22;;;;;;;19.97;3.70;;;23.30;99.90;;;;;;4471063;26;20243;-77
2024/04/09 09:27:26;;;;;;;11.83;3.17;;;23.40;99.90;;;;;;4489285;26;20247;-79
2024/04/09 09:29:28;;;;;;;12.03;3.50;;;23.40;99.90;;;;;;4475500;26;20866;-78
2024/04/09 09:31:33;;;;;;;15.60;4.00;;;23.50;99.90;;;;;;4466548;26;20244;-82
2024/04/09 09:33:39;;;;;;;16.17;3.57;;;23.50;99.90;;;;;;4469454;26;20259;-79
2024/04/09 09:35:50;;;;;;;22.87;4.33;;;23.60;99.90;;;;;;4483825;26;20289;-79
2024/04/09 09:37:55;;;;;;;18.63;4.57;;;23.70;99.90;;;;;;4473946;26;20333;-76
2024/04/09 09:40:01;;;;;;;15.10;3.93;;;23.80;99.90;;;;;;4492995;26;20310;-78
2024/04/09 09:42:06;;;;;;;10.53;3.90;;;23.90;99.90;;;;;;4498155;26;20289;-78
2024/04/09 09:44:10;;;;;;;14.70;3.87;;;24.00;99.90;;;;;;4498552;26;20257;-77
2024/04/09 09:46:13;;;;;;;15.67;3.60;;;24.10;99.90;;;;;;4484118;26;20291;-78
2024/04/09 09:48:20;;;;;;;16.10;4.20;;;24.10;99.90;;;;;;4491268;26;20280;-78
2024/04/09 09:50:23;;;;;;;14.67;3.57;;;24.30;99.90;;;;;;4487946;26;20819;-77
2024/04/09 09:52:29;;;;;;;19.27;4.13;;;24.40;99.90;;;;;;4482342;26;20345;-77
2024/04/09 09:54:30;;;;;;;22.17;4.30;;;24.50;88.70;;;;;;4493137;26;20295;-77
2024/04/09 09:56:37;;;;;;;17.33;3.73;;;24.60;81.20;;;;;;4487463;26;20260;-78
2024/04/09 09:58:39;;;;;;;27.47;3.67;;;24.80;78.60;;;;;;4476044;26;20243;-76
2024/04/09 10:00:41;;;;;;;19.30;3.90;;;24.90;72.90;;;;;;4481863;26;20245;-77
2024/04/09 10:02:46;;;;;;;18.63;4.20;;;25.00;70.80;;;;;;4477200;26;20244;-77
2024/04/09 10:04:48;;;;;;;18.53;3.90;;;25.10;72.10;;;;;;4482259;26;20677;-77
2024/04/09 10:06:58;;;;;;;23.73;3.77;;;25.20;65.90;;;;;;4473308;26;20655;-78
2024/04/09 10:09:08;;;;;;;25.67;4.20;;;25.30;64.00;;;;;;4482175;26;20270;-78
2024/04/09 10:11:14;;;;;;;29.63;4.00;;;25.40;55.00;;;;;;4491333;26;20237;-78
2024/04/09 10:13:18;;;;;;;23.53;4.70;;;25.50;54.50;;;;;;4479675;26;20235;-77
2024/04/09 10:15:27;;;;;;;22.10;3.70;;;25.60;55.00;;;;;;4485576;26;20724;-78
2024/04/09 10:17:45;;;;;;;17.43;3.17;;;25.70;53.20;;;;;;4487177;26;20250;-77
2024/04/09 10:19:50;;;;;;;16.13;4.10;;;25.70;51.40;;;;;;4474054;26;20277;-77
2024/04/09 10:21:51;;;;;;;23.83;4.90;;;25.70;48.50;;;;;;4484986;26;20728;-78
2024/04/09 10:23:59;;;;;;;21.40;3.90;;;25.70;45.70;;;;;;4484001;26;20251;-79
2024/04/09 10:26:05;;;;;;;22.37;4.53;;;25.80;44.10;;;;;;4483890;26;20248;-78
2024/04/09 10:28:10;;;;;;;20.57;3.90;;;25.80;44.90;;;;;;4485756;26;20255;-78
2024/04/09 10:30:14;;;;;;;19.83;4.20;;;25.80;43.40;;;;;;4471000;26;20311;-78
2024/04/09 10:32:24;;;;;;;21.77;3.70;;;25.80;43.50;;;;;;4473556;26;20286;-78
2024/04/09 10:34:26;;;;;;;21.00;4.20;;;25.80;44.10;;;;;;4478603;26;20251;-78
2024/04/09 10:36:30;;;;;;;23.07;3.60;;;25.80;44.70;;;;;;4489747;26;20325;-78
2024/04/09 10:38:31;;;;;;;29.13;4.17;;;25.80;44.60;;;;;;4474983;26;20772;-77